Time;durP1;ratioP1;P1;durP2;ratioP2;P2;SDS_P1;SDS_P2;PMS_P1;PMS_P2;Temp;Humidity;BMP_temperature;BMP_pressure;BME280_temperature;BME280_humidity;BME280_pressure;Samples;Min_cycle;Max_cycle;Signal;HPM_P1;HPM_P2
2023/04/03 00:01:22;;;;;;;;;8.00;6.25;;;;;20.54;36.07;102136.56;5078185;28;45336;-44
2023/04/03 00:03:47;;;;;;;;;8.25;6.00;;;;;20.57;36.66;102137.38;5077146;28;64764;-44
2023/04/03 00:06:13;;;;;;;;;8.75;6.00;;;;;20.57;36.17;102137.38;5077142;28;45294;-45
2023/04/03 00:08:40;;;;;;;;;7.00;6.50;;;;;20.55;36.62;102145.34;5060759;28;45327;-45
2023/04/03 00:11:05;;;;;;;;;6.00;6.00;;;;;20.51;36.29;102127.91;5078873;28;45459;-45
2023/04/03 00:13:31;;;;;;;;;7.00;7.00;;;;;20.55;36.22;102140.06;5077235;28;46017;-45
2023/04/03 00:15:56;;;;;;;;;7.00;7.00;;;;;20.53;36.82;102142.72;5077435;28;45414;-44
2023/04/03 00:18:22;;;;;;;;;7.50;7.50;;;;;20.51;36.26;102136.66;5078120;28;45361;-45
2023/04/03 00:20:48;;;;;;;;;6.00;6.00;;;;;20.51;36.30;102139.28;5059750;28;45870;-44
2023/04/03 00:23:13;;;;;;;;;9.00;6.75;;;;;20.51;36.38;102141.06;5077374;28;46342;-45
2023/04/03 00:25:39;;;;;;;;;6.75;6.75;;;;;20.50;36.23;102142.84;5077228;28;45341;-44
2023/04/03 00:28:04;;;;;;;;;8.00;8.00;;;;;20.50;36.73;102147.25;5077858;28;45169;-44
2023/04/03 00:30:30;;;;;;;;;9.00;6.50;;;;;20.49;36.36;102151.66;5095230;28;44997;-49
2023/04/03 00:32:56;;;;;;;;;6.50;5.75;;;;;20.48;36.47;102135.91;5094184;27;46038;-44
2023/04/03 00:35:22;;;;;;;;;6.00;6.00;;;;;20.48;36.27;102141.16;5077772;28;45243;-45
2023/04/03 00:37:51;;;;;;;;;9.25;6.00;;;;;20.47;36.68;102139.44;5076804;28;45287;-49
2023/04/03 00:40:16;;;;;;;;;6.75;6.75;;;;;20.47;36.42;102142.06;5077548;28;45271;-49
2023/04/03 00:42:43;;;;;;;;;9.00;6.75;;;;;20.47;36.18;102139.44;5077074;28;46920;-50
2023/04/03 00:45:18;;;;;;;;;6.00;6.00;;;;;20.45;36.25;102144.78;5077264;28;45294;-49
2023/04/03 00:47:43;;;;;;;;;5.00;5.00;;;;;20.45;36.45;102150.03;5077723;28;45307;-49
2023/04/03 00:50:09;;;;;;;;;6.50;6.50;;;;;20.43;36.44;102143.13;5079381;28;45612;-48
2023/04/03 00:52:37;;;;;;;;;9.00;5.75;;;;;20.43;36.50;102136.06;5098527;28;45195;-49
2023/04/03 00:55:07;;;;;;;;;6.00;5.50;;;;;20.38;36.23;102130.97;5078046;28;45286;-49
2023/04/03 00:57:33;;;;;;;;;7.00;7.00;;;;;20.41;36.27;102144.94;5076984;28;45270;-50
2023/04/03 01:00:04;;;;;;;;;9.00;6.00;;;;;20.41;36.28;102142.31;5076588;28;56784;-48
2023/04/03 01:02:30;;;;;;;;;6.75;6.50;;;;;20.41;36.20;102137.88;5077049;28;46268;-51
2023/04/03 01:04:55;;;;;;;;;7.75;7.25;;;;;20.41;36.68;102137.03;5077059;28;45439;-44
2023/04/03 01:07:26;;;;;;;;;7.00;5.50;;;;;20.39;36.63;102132.69;5077341;28;45410;-47
2023/04/03 01:09:56;;;;;;;;;6.00;6.00;;;;;20.40;36.31;102128.25;5077526;28;45225;-50
2023/04/03 01:12:23;;;;;;;;;7.00;5.75;;;;;20.38;36.22;102123.06;5077255;28;46876;-49
2023/04/03 01:14:51;;;;;;;;;5.75;5.75;;;;;20.36;36.50;102130.13;5078900;28;45334;-49
2023/04/03 01:17:53;;;;;;;;;7.00;5.00;;;;;20.37;36.43;102126.59;5081062;28;45306;-46
2023/04/03 01:20:36;;;;;;;;;5.50;5.25;;;;;20.36;36.15;102122.25;5082450;28;45200;-47
2023/04/03 01:23:10;;;;;;;;;7.50;5.25;;;;;20.35;36.51;102125.78;5082106;28;45587;-50
2023/04/03 01:25:38;;;;;;;;;6.25;6.00;;;;;20.37;36.52;102120.47;5082587;28;45942;-49
2023/04/03 01:28:06;;;;;;;;;7.75;6.75;;;;;20.33;36.01;102119.72;5082586;28;45425;-47
2023/04/03 01:30:36;;;;;;;;;7.00;5.75;;;;;20.33;36.72;102117.09;5081726;28;45520;-47
2023/04/03 01:33:01;;;;;;;;;5.75;5.75;;;;;20.33;36.33;102119.72;5080985;28;46360;-45
2023/04/03 01:35:27;;;;;;;;;6.00;5.00;;;;;20.34;36.59;102117.94;5082936;28;45817;-46
2023/04/03 01:37:52;;;;;;;;;8.00;8.00;;;;;20.33;36.50;102109.22;5091658;28;45371;-48
2023/04/03 01:40:17;;;;;;;;;6.00;6.00;;;;;20.33;36.25;102114.47;5105215;27;52850;-48
2023/04/03 01:42:43;;;;;;;;;7.25;7.00;;;;;20.32;36.13;102112.75;5089031;28;46193;-51
2023/04/03 01:45:08;;;;;;;;;7.67;6.00;;;;;20.32;36.53;102112.75;5080142;28;54081;-49
2023/04/03 01:47:34;;;;;;;;;5.50;5.25;;;;;20.30;36.48;102104.03;5080255;28;45310;-49
2023/04/03 01:49:59;;;;;;;;;6.00;6.00;;;;;20.31;36.26;102115.41;5079279;28;45576;-49
2023/04/03 01:52:24;;;;;;;;;6.50;6.00;;;;;20.31;35.99;102115.41;5080189;28;46036;-48
2023/04/03 01:54:50;;;;;;;;;6.00;5.25;;;;;20.30;36.43;102114.56;5079704;28;45348;-47
2023/04/03 01:57:16;;;;;;;;;6.75;6.00;;;;;20.29;36.14;102110.22;5080261;28;45187;-50
2023/04/03 01:59:41;;;;;;;;;6.50;5.75;;;;;20.28;36.25;102111.13;5086217;28;45487;-46
2023/04/03 02:02:07;;;;;;;;;8.75;6.00;;;;;20.28;36.50;102110.28;5106180;27;44992;-47
2023/04/03 02:04:32;;;;;;;;;6.25;6.25;;;;;20.29;36.59;102114.59;5096844;28;45397;-50
2023/04/03 02:06:58;;;;;;;;;6.00;4.75;;;;;20.27;36.50;102112.03;5081076;28;45259;-49
2023/04/03 02:09:23;;;;;;;;;5.50;5.50;;;;;20.27;36.09;102109.41;5080515;28;45444;-49
2023/04/03 02:11:48;;;;;;;;;7.25;6.00;;;;;20.27;36.50;102111.19;5100260;27;46912;-48
2023/04/03 02:14:14;;;;;;;;;8.00;6.25;;;;;20.26;36.15;102106.81;5101934;28;51688;-47
2023/04/03 02:16:39;;;;;;;;;5.50;5.25;;;;;20.26;36.28;102107.66;5107031;27;44801;-44
2023/04/03 02:19:05;;;;;;;;;4.75;4.75;;;;;20.24;36.54;102107.75;5105588;27;44862;-45
2023/04/03 02:21:30;;;;;;;;;5.75;4.00;;;;;20.24;36.51;102115.63;5105295;27;45150;-49
2023/04/03 02:23:56;;;;;;;;;7.00;5.75;;;;;20.23;36.10;102110.41;5085004;28;45358;-49
2023/04/03 02:26:21;;;;;;;;;4.25;4.25;;;;;20.23;35.95;102113.03;5078521;28;45378;-45
2023/04/03 02:28:47;;;;;;;;;6.00;6.00;;;;;20.21;36.25;102104.34;5096432;27;45322;-46
2023/04/03 02:31:12;;;;;;;;;5.00;5.00;;;;;20.23;36.24;102113.03;5071936;28;47184;-46
2023/04/03 02:33:38;;;;;;;;;5.75;5.75;;;;;20.22;36.25;102119.25;5094242;28;50967;-48
2023/04/03 02:36:05;;;;;;;;;6.75;6.25;;;;;20.21;36.32;102110.47;5101355;28;44698;-47
2023/04/03 02:38:30;;;;;;;;;8.00;6.25;;;;;20.20;36.23;102118.44;5092755;28;45218;-44
2023/04/03 02:41:04;;;;;;;;;7.25;6.25;;;;;20.21;36.31;102120.16;5080981;28;45427;-51
2023/04/03 02:43:30;;;;;;;;;5.00;3.75;;;;;20.20;36.36;102113.16;5080419;28;45214;-49
2023/04/03 02:45:55;;;;;;;;;6.50;6.50;;;;;20.20;36.59;102119.28;5081296;28;45287;-51
2023/04/03 02:48:20;;;;;;;;;5.00;5.00;;;;;20.19;36.52;102112.28;5084601;28;45272;-49
2023/04/03 02:50:46;;;;;;;;;5.50;5.50;;;;;20.18;36.08;102113.19;5080868;28;45481;-48
2023/04/03 02:53:11;;;;;;;;;5.50;5.00;;;;;20.18;36.07;102121.09;5079907;28;45378;-50
2023/04/03 02:55:36;;;;;;;;;8.00;5.00;;;;;20.18;36.57;102112.34;5079635;28;50802;-49
2023/04/03 02:58:03;;;;;;;;;7.00;7.00;;;;;20.16;36.21;102107.13;5080752;28;45337;-45
2023/04/03 03:00:28;;;;;;;;;5.50;5.50;;;;;20.18;36.18;102112.34;5080008;28;46242;-44
2023/04/03 03:02:54;;;;;;;;;6.00;6.00;;;;;20.17;36.12;102113.25;5079262;28;45350;-44
2023/04/03 03:05:19;;;;;;;;;7.50;5.50;;;;;20.15;36.59;102109.81;5079785;28;45299;-44
2023/04/03 03:07:45;;;;;;;;;6.25;5.00;;;;;20.16;36.61;102108.91;5078913;28;45520;-45
2023/04/03 03:10:10;;;;;;;;;5.75;5.00;;;;;20.11;36.10;102101.16;5079788;28;46277;-44
2023/04/03 03:12:35;;;;;;;;;5.00;4.00;;;;;20.15;36.46;102109.81;5078995;28;49101;-44
2023/04/03 03:15:00;;;;;;;;;4.33;4.33;;;;;20.14;36.29;102108.97;5091777;28;60750;-50
2023/04/03 03:17:26;;;;;;;;;5.75;5.75;;;;;20.15;36.47;102104.53;5100823;27;44841;-48
2023/04/03 03:19:51;;;;;;;;;5.00;5.00;;;;;20.15;36.23;102104.53;5078745;28;61370;-49
2023/04/03 03:22:16;;;;;;;;;4.75;4.25;;;;;20.14;35.95;102102.81;5079818;28;45361;-48
2023/04/03 03:24:42;;;;;;;;;4.50;4.50;;;;;20.14;36.40;102108.09;5092057;28;45345;-48
2023/04/03 03:27:07;;;;;;;;;4.00;4.00;;;;;20.13;36.17;102101.09;5099343;28;44776;-49
2023/04/03 03:29:32;;;;;;;;;6.00;6.00;;;;;20.13;35.93;102101.97;5087020;28;45256;-50
2023/04/03 03:31:58;;;;;;;;;4.00;4.00;;;;;20.12;36.54;102104.66;5092750;28;57207;-48
2023/04/03 03:34:23;;;;;;;;;6.00;6.00;;;;;20.12;36.18;102109.94;5083447;28;45246;-49
2023/04/03 03:36:49;;;;;;;;;5.50;5.50;;;;;20.12;36.01;102109.94;5079424;28;50208;-44
2023/04/03 03:39:14;;;;;;;;;5.75;4.00;;;;;20.11;36.61;102108.22;5090900;28;45292;-45
2023/04/03 03:41:39;;;;;;;;;5.00;5.00;;;;;20.10;36.19;102107.34;5101023;28;71026;-44
2023/04/03 03:44:05;;;;;;;;;7.50;5.50;;;;;20.11;36.10;102109.06;5079723;28;45307;-48
2023/04/03 03:46:30;;;;;;;;;6.00;4.00;;;;;20.10;36.55;102098.59;5080728;28;45528;-50
2023/04/03 03:48:55;;;;;;;;;6.75;6.00;;;;;20.07;36.32;102103.03;5082569;28;46997;-48
2023/04/03 03:51:21;;;;;;;;;5.00;5.00;;;;;20.10;36.24;102098.59;5081002;28;45267;-49
2023/04/03 03:53:46;;;;;;;;;6.25;4.75;;;;;20.07;36.53;102100.41;5061198;28;45339;-48
2023/04/03 03:56:12;;;;;;;;;3.25;3.25;;;;;20.09;36.55;102105.59;5079219;28;45236;-51
2023/04/03 03:58:37;;;;;;;;;4.00;4.00;;;;;20.06;35.89;102106.56;5079346;28;46745;-50
2023/04/03 04:01:05;;;;;;;;;9.00;7.75;;;;;20.07;35.91;102108.31;5079350;28;45434;-49
2023/04/03 04:03:30;;;;;;;;;6.00;6.00;;;;;20.04;35.72;102108.41;5079754;28;45402;-49
2023/04/03 04:05:56;;;;;;;;;4.50;4.50;;;;;20.03;36.31;102111.94;5081541;28;45419;-48
2023/04/03 04:08:21;;;;;;;;;5.00;5.00;;;;;20.04;35.93;102104.91;5084956;28;46108;-48
2023/04/03 04:10:46;;;;;;;;;6.75;6.00;;;;;20.03;36.31;102105.81;5086595;28;45337;-49
2023/04/03 04:13:12;;;;;;;;;5.00;4.00;;;;;20.02;36.46;102102.31;5081987;28;56084;-45
2023/04/03 04:15:37;;;;;;;;;4.67;4.00;;;;;20.03;36.40;102106.66;5084432;28;55375;-44
2023/04/03 04:18:04;;;;;;;;;4.25;4.00;;;;;20.03;35.74;102104.03;5099951;28;46818;-49
2023/04/03 04:20:29;;;;;;;;;3.00;3.00;;;;;20.02;36.23;102097.06;5080332;28;45248;-49
2023/04/03 04:22:55;;;;;;;;;3.00;3.00;;;;;20.01;36.19;102095.31;5081566;28;45160;-49
2023/04/03 04:25:20;;;;;;;;;5.00;5.00;;;;;20.01;36.41;102092.69;5079259;28;45561;-46
2023/04/03 04:27:45;;;;;;;;;5.50;5.00;;;;;20.01;36.23;102100.59;5082234;28;46135;-48
2023/04/03 04:30:12;;;;;;;;;4.50;4.50;;;;;20.01;36.46;102099.75;5087785;28;45365;-46
2023/04/03 04:32:37;;;;;;;;;4.00;4.00;;;;;20.01;36.03;102107.63;5102035;28;45025;-45
2023/04/03 04:35:03;;;;;;;;;4.00;4.00;;;;;20.00;36.09;102108.53;5084240;28;45516;-50
2023/04/03 04:37:29;;;;;;;;;4.00;3.75;;;;;20.00;36.21;102106.78;5081771;28;46915;-51
2023/04/03 04:39:54;;;;;;;;;6.00;6.00;;;;;19.98;36.01;102103.34;5081767;28;45443;-47
2023/04/03 04:42:19;;;;;;;;;4.00;4.00;;;;;19.98;36.43;102102.47;5081075;28;45286;-49
2023/04/03 04:44:45;;;;;;;;;7.25;4.00;;;;;19.97;36.18;102099.00;5068090;28;45249;-48
2023/04/03 04:47:10;;;;;;;;;5.00;3.67;;;;;19.97;36.25;102103.38;5089902;28;52832;-49
2023/04/03 04:49:35;;;;;;;;;4.00;4.00;;;;;19.97;35.96;102106.88;5081719;28;57222;-51
2023/04/03 04:52:01;;;;;;;;;4.50;4.50;;;;;19.95;35.91;102111.34;5087828;28;45341;-49
2023/04/03 04:54:26;;;;;;;;;4.00;4.00;;;;;19.96;36.42;102113.06;5077690;28;45275;-50
2023/04/03 04:56:51;;;;;;;;;3.50;3.50;;;;;19.95;36.19;102106.06;5077171;28;47075;-46
2023/04/03 04:59:16;;;;;;;;;5.25;4.25;;;;;19.96;36.61;102107.78;5077155;28;45322;-46
2023/04/03 05:01:42;;;;;;;;;4.75;4.75;;;;;19.95;35.90;102106.06;5077401;28;45330;-44
2023/04/03 05:04:07;;;;;;;;;5.25;4.25;;;;;19.94;36.08;102112.25;5077080;28;45853;-43
2023/04/03 05:06:34;;;;;;;;;5.50;5.50;;;;;19.92;36.40;102107.03;5077486;28;47123;-43
2023/04/03 05:09:00;;;;;;;;;3.00;3.00;;;;;19.93;36.03;102107.88;5100696;27;45202;-46
2023/04/03 05:11:26;;;;;;;;;5.75;5.75;;;;;19.93;36.18;102110.50;5091735;27;45157;-46
2023/04/03 05:13:51;;;;;;;;;4.00;4.00;;;;;19.92;36.20;102111.41;5079965;28;45234;-48
2023/04/03 05:16:16;;;;;;;;;4.00;4.00;;;;;19.92;35.96;102108.78;5077120;28;46611;-49
2023/04/03 05:18:42;;;;;;;;;5.00;5.00;;;;;19.92;36.21;102108.78;5076817;28;45295;-47
2023/04/03 05:21:07;;;;;;;;;4.50;4.50;;;;;19.91;35.74;102115.84;5076975;28;45230;-48
2023/04/03 05:23:33;;;;;;;;;3.00;3.00;;;;;19.90;35.96;102108.84;5082748;28;53078;-48
2023/04/03 05:25:58;;;;;;;;;2.00;2.00;;;;;19.90;35.87;102114.13;5097060;28;45345;-45
2023/04/03 05:28:24;;;;;;;;;4.00;4.00;;;;;19.89;36.27;102114.19;5081736;28;45464;-50
2023/04/03 05:30:54;;;;;;;;;8.00;4.25;;;;;19.90;35.51;102116.75;5076593;28;45383;-50
2023/04/03 05:33:19;;;;;;;;;3.50;3.25;;;;;19.89;35.59;102119.44;5077508;28;45214;-45
2023/04/03 05:35:45;;;;;;;;;4.00;4.00;;;;;19.88;35.55;102117.72;5076069;28;50887;-44
2023/04/03 05:38:10;;;;;;;;;4.00;4.00;;;;;19.85;35.83;102113.34;5082611;28;45311;-45
2023/04/03 05:40:35;;;;;;;;;4.75;4.00;;;;;19.86;35.82;102112.47;5087862;28;45141;-44
2023/04/03 05:43:01;;;;;;;;;4.00;4.00;;;;;19.87;35.87;102118.63;5079053;28;45742;-44
2023/04/03 05:45:26;;;;;;;;;3.25;2.75;;;;;19.85;35.96;102117.78;5076178;28;54244;-47
2023/04/03 05:47:51;;;;;;;;;4.50;4.00;;;;;19.85;35.87;102112.50;5076379;28;45814;-44
2023/04/03 05:50:17;;;;;;;;;5.00;5.00;;;;;19.84;35.61;102119.56;5076676;28;55959;-44
2023/04/03 05:52:45;;;;;;;;;3.00;3.00;;;;;19.85;35.87;102115.13;5091511;28;45401;-45
2023/04/03 05:55:10;;;;;;;;;5.25;4.00;;;;;19.85;35.66;102123.03;5098865;28;46142;-48
2023/04/03 05:57:36;;;;;;;;;7.25;6.00;;;;;19.83;35.68;102120.47;5090682;28;45388;-46
2023/04/03 06:00:05;;;;;;;;;3.50;3.50;;;;;19.82;35.80;102124.00;5079076;28;45345;-43
2023/04/03 06:02:31;;;;;;;;;1.00;1.00;;;;;19.81;35.58;102122.28;5084902;28;45330;-43
2023/04/03 06:04:56;;;;;;;;;4.25;4.25;;;;;19.80;35.28;102130.19;5098854;28;46914;-48
2023/04/03 06:07:27;;;;;;;;;5.25;5.00;;;;;19.81;35.95;102126.66;5083643;28;45248;-50
2023/04/03 06:09:55;;;;;;;;;5.00;4.00;;;;;19.78;35.52;102131.13;5084002;28;45289;-48
2023/04/03 06:12:21;;;;;;;;;5.00;3.75;;;;;19.78;35.37;102133.75;5096334;27;45176;-48
2023/04/03 06:14:47;;;;;;;;;3.00;3.00;;;;;19.77;35.56;102129.41;5079720;28;47075;-46
2023/04/03 06:17:13;;;;;;;;;4.00;4.00;;;;;19.78;35.79;102138.16;5079653;28;45519;-47
2023/04/03 06:19:38;;;;;;;;;4.00;4.00;;;;;19.77;35.67;102136.44;5079411;28;45355;-46
2023/04/03 06:22:03;;;;;;;;;3.25;3.00;;;;;19.76;35.96;102130.31;5079521;28;45771;-48
2023/04/03 06:24:30;;;;;;;;;3.75;3.75;;;;;19.76;35.64;102132.06;5080091;28;46372;-46
2023/04/03 06:26:56;;;;;;;;;5.75;5.00;;;;;19.75;35.24;102127.72;5080407;28;45313;-50
2023/04/03 06:29:21;;;;;;;;;4.00;4.00;;;;;19.74;35.62;102133.88;5080147;28;45456;-49
2023/04/03 06:31:47;;;;;;;;;3.50;3.50;;;;;19.75;35.78;102130.34;5079552;28;45320;-49
2023/04/03 06:34:13;;;;;;;;;4.00;4.00;;;;;19.74;35.41;102132.13;5079696;28;46345;-47
2023/04/03 06:36:39;;;;;;;;;4.50;4.50;;;;;19.72;35.67;102130.47;5079645;28;45270;-47
2023/04/03 06:39:05;;;;;;;;;4.25;4.25;;;;;19.74;35.88;102136.50;5079661;28;45232;-50
2023/04/03 06:41:31;;;;;;;;;5.25;3.50;;;;;19.74;35.72;102141.78;5083847;28;45643;-47
2023/04/03 06:44:00;;;;;;;;;3.00;3.00;;;;;19.73;35.62;102135.66;5095193;28;45234;-47
2023/04/03 06:46:26;;;;;;;;;7.50;5.00;;;;;19.73;35.86;102135.66;5079762;28;46485;-45
2023/04/03 06:48:53;;;;;;;;;6.00;4.00;;;;;19.73;35.28;102135.66;5061224;28;45403;-42
2023/04/03 06:51:24;;;;;;;;;5.00;3.25;;;;;19.74;35.79;102139.16;5079800;28;45256;-44
2023/04/03 06:53:51;;;;;;;;;4.75;4.50;;;;;19.74;35.35;102140.03;5079772;28;47034;-47
2023/04/03 06:56:17;;;;;;;;;4.00;3.00;;;;;19.75;35.90;102138.25;5080478;28;45465;-43
2023/04/03 06:58:43;;;;;;;;;4.25;4.00;;;;;19.74;35.59;102142.66;5093677;28;45329;-43
2023/04/03 07:01:11;;;;;;;;;5.25;3.50;;;;;19.73;35.35;102140.06;5104859;27;44869;-46
2023/04/03 07:03:37;;;;;;;;;5.00;4.75;;;;;19.74;35.72;102142.66;5100030;27;46237;-50
2023/04/03 07:06:05;;;;;;;;;5.00;3.50;;;;;19.74;35.48;102134.75;5082524;28;45942;-49
2023/04/03 07:08:31;;;;;;;;;5.00;4.25;;;;;19.75;35.63;102136.47;5080465;28;45471;-50
2023/04/03 07:10:56;;;;;;;;;3.00;3.00;;;;;19.74;35.35;102132.13;5080196;28;45413;-44
2023/04/03 07:13:22;;;;;;;;;5.00;4.00;;;;;19.75;35.83;102141.75;5078601;28;45813;-52
2023/04/03 07:15:48;;;;;;;;;4.00;4.00;;;;;19.76;35.91;102140.84;5060981;28;52302;-45
2023/04/03 07:18:13;;;;;;;;;4.00;4.00;;;;;19.76;35.79;102135.56;5079966;28;45243;-47
2023/04/03 07:20:38;;;;;;;;;3.50;3.50;;;;;19.75;35.25;102136.47;5079369;28;45211;-50
2023/04/03 07:23:04;;;;;;;;;3.50;3.50;;;;;19.76;35.60;102140.84;5083544;28;54030;-50
2023/04/03 07:25:30;;;;;;;;;4.75;3.50;;;;;19.76;35.54;102140.84;5094850;28;44748;-51
2023/04/03 07:27:56;;;;;;;;;3.75;3.75;;;;;19.76;35.45;102137.31;5098692;28;45273;-50
2023/04/03 07:30:21;;;;;;;;;6.00;5.00;;;;;19.75;35.78;102136.47;5102720;28;44923;-50
2023/04/03 07:32:47;;;;;;;;;5.75;3.00;;;;;19.76;35.58;102140.84;5064958;28;46061;-44
2023/04/03 07:35:12;;;;;;;;;4.00;4.00;;;;;19.77;35.31;102142.56;5080857;28;45449;-44
2023/04/03 07:37:38;;;;;;;;;5.50;4.00;;;;;19.78;35.35;102139.03;5081265;28;45448;-43
2023/04/03 07:40:04;;;;;;;;;2.75;2.75;;;;;19.79;35.65;102134.63;5100485;28;45295;-48
2023/04/03 07:42:30;;;;;;;;;3.25;3.25;;;;;19.83;35.74;102141.50;5091920;28;45383;-46
2023/04/03 07:44:56;;;;;;;;;6.00;3.50;;;;;19.87;35.76;102147.56;5078822;28;45321;-48
2023/04/03 07:47:22;;;;;;;;;4.25;4.00;;;;;19.88;35.29;102144.88;5079725;28;45422;-46
2023/04/03 07:49:48;;;;;;;;;4.00;4.00;;;;;19.87;35.26;102152.81;5079313;28;45314;-46
2023/04/03 07:52:15;;;;;;;;;6.25;3.00;;;;;19.85;35.72;102144.09;5086020;28;45284;-49
2023/04/03 07:54:40;;;;;;;;;4.00;4.00;;;;;19.86;35.61;102151.94;5099488;28;45111;-50
2023/04/03 07:57:06;;;;;;;;;3.50;3.50;;;;;19.84;35.03;102147.63;5081928;28;45240;-49
2023/04/03 07:59:31;;;;;;;;;4.00;4.00;;;;;19.85;35.06;102157.25;5079589;28;45303;-52
2023/04/03 08:01:57;;;;;;;;;5.00;3.00;;;;;19.83;35.67;102159.03;5078329;28;46092;-52
2023/04/03 08:04:22;;;;;;;;;2.50;2.50;;;;;19.82;35.54;102157.31;5078697;28;45611;-49
2023/04/03 08:06:48;;;;;;;;;3.50;3.50;;;;;19.84;35.75;102152.88;5079136;28;45416;-48
2023/04/03 08:09:16;;;;;;;;;4.25;4.25;;;;;19.83;35.69;102152.03;5079534;28;45432;-47
2023/04/03 08:11:42;;;;;;;;;3.00;3.00;;;;;19.82;35.24;102154.69;5081341;28;45482;-51
2023/04/03 08:14:07;;;;;;;;;3.50;3.50;;;;;19.83;35.51;102153.78;5079716;28;45399;-48
2023/04/03 08:16:33;;;;;;;;;4.25;3.50;;;;;19.84;35.18;102158.16;5077000;28;45493;-51
2023/04/03 08:18:59;;;;;;;;;5.75;4.00;;;;;19.83;35.15;102159.94;5077955;28;45322;-49
2023/04/03 08:21:25;;;;;;;;;3.50;3.50;;;;;19.84;35.50;102152.88;5077833;28;46274;-45
2023/04/03 08:23:51;;;;;;;;;4.50;4.00;;;;;19.85;35.26;102155.44;5077626;28;45232;-47
2023/04/03 08:26:21;;;;;;;;;4.00;2.00;;;;;19.86;35.67;102153.72;5077652;28;45245;-47
2023/04/03 08:28:47;;;;;;;;;3.25;3.25;;;;;19.87;35.63;102155.47;5078348;28;45263;-49
2023/04/03 08:31:18;;;;;;;;;3.50;3.50;;;;;19.85;35.70;102159.88;5088825;28;46451;-49
2023/04/03 08:33:43;;;;;;;;;3.75;3.75;;;;;19.81;35.72;102152.97;5090590;28;45191;-49
2023/04/03 08:36:18;;;;;;;;;3.75;3.50;;;;;19.81;35.64;102152.97;5092352;28;45333;-48
2023/04/03 08:38:43;;;;;;;;;5.00;3.75;;;;;19.79;35.43;102153.03;5087692;28;45362;-47
2023/04/03 08:41:31;;;;;;;;;4.00;4.00;;;;;19.76;35.17;102153.13;5086131;28;51697;-50
2023/04/03 08:44:10;;;;;;;;;3.75;3.75;;;;;19.74;35.45;102150.53;5080335;28;45878;-52
2023/04/03 08:47:11;;;;;;;;;3.25;3.25;;;;;19.76;35.20;102150.47;5078310;28;45294;-53
2023/04/03 08:49:52;;;;;;;;;1.50;1.50;;;;;19.76;35.45;102158.38;5103559;28;44790;-44
2023/04/03 08:52:23;;;;;;;;;3.00;3.00;;;;;19.74;34.74;102145.28;5079611;28;46519;-46
2023/04/03 08:54:55;;;;;;;;;3.00;3.00;;;;;19.76;34.83;102150.47;5102985;28;45078;-46
2023/04/03 08:57:32;;;;;;;;;3.00;3.00;;;;;19.76;35.33;102151.38;5083571;27;45472;-43
2023/04/03 09:00:02;;;;;;;;;4.75;3.00;;;;;19.77;34.79;102152.22;5077389;27;45464;-44
2023/04/03 09:02:41;;;;;;;;;2.00;2.00;;;;;19.75;34.71;102146.13;5077069;27;46928;-47
2023/04/03 09:05:16;;;;;;;;;3.00;3.00;;;;;19.76;34.41;102145.22;5078000;27;45383;-45
2023/04/03 09:07:47;;;;;;;;;2.25;2.25;;;;;19.73;35.01;102156.72;5076901;27;45493;-42
2023/04/03 09:10:23;;;;;;;;;3.50;3.25;;;;;19.74;34.61;102153.16;5081687;27;45364;-44
2023/04/03 09:12:58;;;;;;;;;4.00;3.00;;;;;19.75;35.04;102154.03;5085575;28;47688;-43
2023/04/03 09:15:25;;;;;;;;;3.00;3.00;;;;;19.75;34.88;102154.91;5091588;27;45848;-46
2023/04/03 09:18:00;;;;;;;;;2.00;2.00;;;;;19.74;34.98;102158.44;5081242;27;45392;-46
2023/04/03 09:20:46;;;;;;;;;2.00;2.00;;;;;19.75;34.79;102154.91;5078397;28;45417;-47
2023/04/03 09:23:19;;;;;;;;;2.25;2.25;;;;;19.76;34.84;102151.38;5079448;28;47202;-45
2023/04/03 09:25:45;;;;;;;;;4.00;3.00;;;;;19.77;34.90;102150.47;5088515;28;45856;-45
2023/04/03 09:28:11;;;;;;;;;3.00;3.00;;;;;19.78;34.96;102153.94;5077021;28;45431;-44
2023/04/03 09:30:38;;;;;;;;;2.00;2.00;;;;;19.80;34.61;102152.13;5088366;28;45509;-43
2023/04/03 09:33:05;;;;;;;;;3.50;2.75;;;;;19.81;35.01;102147.72;5097915;28;45271;-43
2023/04/03 09:35:33;;;;;;;;;2.25;2.25;;;;;19.79;34.57;102147.75;5089963;28;45422;-41
2023/04/03 09:38:10;;;;;;;;;3.00;3.00;;;;;19.80;34.97;102144.22;5088897;28;45426;-45
2023/04/03 09:40:39;;;;;;;;;3.50;3.00;;;;;19.78;34.44;102148.66;5096467;28;45337;-45
2023/04/03 09:43:24;;;;;;;;;2.25;2.00;;;;;19.80;34.45;102151.25;5094283;28;46054;-40
2023/04/03 09:45:51;;;;;;;;;4.00;3.00;;;;;19.80;34.91;102149.50;5101140;28;45246;-43
2023/04/03 09:48:20;;;;;;;;;3.50;2.75;;;;;19.81;34.45;102160.84;5096907;28;45278;-40
2023/04/03 09:51:04;;;;;;;;;2.00;2.00;;;;;19.80;34.64;102152.13;5085848;28;45602;-47
2023/04/03 09:53:37;;;;;;;;;2.50;2.00;;;;;19.81;34.81;102150.34;5086820;28;47256;-40
2023/04/03 09:56:16;;;;;;;;;4.00;2.75;;;;;19.83;34.31;102148.53;5096601;28;45141;-45
2023/04/03 09:58:44;;;;;;;;;2.00;2.00;;;;;19.83;34.69;102146.78;5098280;28;44771;-40
2023/04/03 10:01:34;;;;;;;;;1.75;1.75;;;;;19.85;34.69;102150.19;5083745;28;45421;-44
2023/04/03 10:04:10;;;;;;;;;3.50;2.00;;;;;19.84;34.51;102152.88;5085328;28;46255;-47
2023/04/03 10:06:56;;;;;;;;;3.00;3.00;;;;;19.84;34.55;102132.72;5075143;28;45272;-47
2023/04/03 10:09:29;;;;;;;;;2.00;1.50;;;;;19.84;34.93;102140.59;5090626;28;45322;-47
2023/04/03 10:12:04;;;;;;;;;2.00;2.00;;;;;19.84;34.20;102129.19;5082222;28;45408;-45
2023/04/03 10:14:35;;;;;;;;;2.00;2.00;;;;;19.85;34.50;102133.56;5080267;28;46130;-51
2023/04/03 10:17:19;;;;;;;;;2.00;2.00;;;;;19.84;34.83;102132.72;5089155;28;45325;-47
2023/04/03 10:20:07;;;;;;;;;1.00;1.00;;;;;19.86;34.81;102130.06;5101088;28;45173;-44
2023/04/03 10:22:55;;;;;;;;;2.00;2.00;;;;;19.87;34.36;102123.88;5094029;28;45392;-47
2023/04/03 10:25:39;;;;;;;;;4.50;2.25;;;;;19.87;34.55;102121.25;5096939;28;46273;-45
2023/04/03 10:28:17;;;;;;;;;2.50;1.00;;;;;19.87;34.66;102116.00;5096752;28;45534;-43
2023/04/03 10:31:08;;;;;;;;;0.25;0.25;;;;;19.88;34.13;102109.81;5076727;28;45596;-45
2023/04/03 10:34:08;;;;;;;;;2.75;2.75;;;;;19.86;34.18;102101.97;5085211;28;45596;-44
2023/04/03 10:37:10;;;;;;;;;3.00;3.00;;;;;19.89;34.28;102103.66;5078730;28;47548;-47
2023/04/03 10:39:51;;;;;;;;;3.00;3.00;;;;;19.89;34.14;102099.22;5075254;28;45139;-43
2023/04/03 10:42:49;;;;;;;;;1.00;1.00;;;;;19.89;34.00;102098.38;5070056;28;45268;-43
2023/04/03 10:45:24;;;;;;;;;2.50;2.00;;;;;19.89;33.94;102101.88;5061304;28;45381;-44
2023/04/03 10:48:16;;;;;;;;;1.50;1.50;;;;;19.88;33.84;102088.78;5069233;28;47009;-45
2023/04/03 10:50:56;;;;;;;;;2.00;2.00;;;;;19.86;33.73;102093.22;5059613;28;45814;-49
2023/04/03 10:53:43;;;;;;;;;2.00;2.00;;;;;19.85;33.78;102086.19;5059446;28;45396;-49
2023/04/03 10:56:22;;;;;;;;;2.00;2.00;;;;;19.83;33.61;102088.88;5059278;28;45226;-50
2023/04/03 10:58:57;;;;;;;;;2.75;2.75;;;;;19.84;34.04;102079.22;5059317;28;46366;-49
2023/04/03 11:01:31;;;;;;;;;2.25;1.25;;;;;19.86;33.94;102082.69;5065645;28;45317;-46
2023/04/03 11:03:58;;;;;;;;;3.25;2.00;;;;;19.85;33.95;102070.41;5067474;28;45289;-46
2023/04/03 11:06:31;;;;;;;;;2.50;2.00;;;;;19.86;34.06;102085.31;5059863;28;45487;-48
2023/04/03 11:09:03;;;;;;;;;3.00;2.75;;;;;19.85;33.81;102080.94;5058825;28;46105;-46
2023/04/03 11:11:35;;;;;;;;;3.00;3.00;;;;;19.84;33.92;102080.09;5058765;28;45772;-47
2023/04/03 11:14:00;;;;;;;;;3.00;2.00;;;;;19.85;33.94;102078.31;5059193;28;45496;-48
2023/04/03 11:16:28;;;;;;;;;2.33;2.33;;;;;19.84;33.93;102066.94;5059154;28;45338;-48
2023/04/03 11:19:08;;;;;;;;;3.00;1.75;;;;;19.85;33.50;102070.41;5058865;28;46605;-47
2023/04/03 11:21:47;;;;;;;;;4.00;2.00;;;;;19.85;33.65;102071.25;5061343;28;45990;-46
2023/04/03 11:24:23;;;;;;;;;6.25;5.50;;;;;19.84;32.67;102063.44;5064038;28;45278;-51
2023/04/03 11:26:52;;;;;;;;;5.00;4.75;;;;;19.81;32.26;102068.78;5078978;28;44688;-48
2023/04/03 11:29:23;;;;;;;;;7.25;6.25;;;;;19.77;32.57;102068.91;5067486;28;45408;-45
2023/04/03 11:32:08;;;;;;;;;7.00;2.50;;;;;19.76;31.87;102071.56;5078102;28;45058;-45